createdAt,value
2022-08-07T00:00:35.930Z,3.80
2022-08-07T00:02:44.571Z,3.30
2022-08-07T00:04:46.466Z,3.30
2022-08-07T00:06:54.115Z,3.80
2022-08-07T00:08:55.789Z,3.50
2022-08-07T00:10:58.216Z,3.80
2022-08-07T00:13:09.866Z,4.00
2022-08-07T00:15:25.840Z,3.90
2022-08-07T00:17:43.490Z,4.50
2022-08-07T00:20:02.643Z,3.60
2022-08-07T00:22:07.125Z,3.70
2022-08-07T00:24:13.704Z,3.40
2022-08-07T00:26:49.465Z,3.30
2022-08-07T00:28:45.632Z,4.10
2022-08-07T00:30:47.826Z,3.70
2022-08-07T00:32:52.380Z,4.30
2022-08-07T00:34:55.797Z,3.80
2022-08-07T00:36:57.678Z,4.10
2022-08-07T00:38:59.390Z,3.50
2022-08-07T00:41:05.814Z,3.30
2022-08-07T00:43:59.054Z,3.90
2022-08-07T00:45:42.179Z,3.80
2022-08-07T00:48:09.009Z,4.10
2022-08-07T00:50:18.980Z,3.70
2022-08-07T00:52:34.214Z,4.00
2022-08-07T00:54:40.667Z,3.80
2022-08-07T00:56:42.799Z,3.00
2022-08-07T00:58:49.786Z,3.80
2022-08-07T01:00:53.474Z,4.00
2022-08-07T01:02:55.785Z,4.50
2022-08-07T01:05:06.753Z,3.60
2022-08-07T01:07:22.140Z,3.90
2022-08-07T01:09:51.112Z,3.60
2022-08-07T01:12:09.830Z,3.40
2022-08-07T01:14:07.984Z,4.10
2022-08-07T01:16:11.860Z,4.20
2022-08-07T01:18:33.075Z,3.90
2022-08-07T01:20:43.557Z,3.80
2022-08-07T01:23:09.002Z,5.50
2022-08-07T01:25:54.479Z,4.20
2022-08-07T01:27:36.980Z,3.60
2022-08-07T01:29:43.334Z,3.60
2022-08-07T01:31:48.229Z,3.60
2022-08-07T01:33:59.660Z,4.00
2022-08-07T01:36:07.559Z,3.80
2022-08-07T01:38:13.964Z,4.20
2022-08-07T01:40:28.181Z,4.20
2022-08-07T01:42:37.604Z,4.00
2022-08-07T01:44:42.152Z,3.40
2022-08-07T01:46:43.898Z,3.70
2022-08-07T01:48:47.874Z,4.00
2022-08-07T01:51:24.772Z,3.90
2022-08-07T01:54:08.434Z,4.10
2022-08-07T01:55:56.062Z,3.90
2022-08-07T01:58:06.819Z,3.40
2022-08-07T02:00:29.017Z,3.20
2022-08-07T02:03:12.310Z,3.40
2022-08-07T02:05:08.954Z,3.60
2022-08-07T02:07:20.915Z,4.50
2022-08-07T02:09:43.616Z,4.30
2022-08-07T02:12:04.541Z,3.40
2022-08-07T02:14:07.935Z,3.00
2022-08-07T02:16:12.000Z,4.00
2022-08-07T02:18:14.146Z,3.90
2022-08-07T02:22:25.962Z,4.30
2022-08-07T02:27:59.341Z,3.20
2022-08-07T02:30:03.580Z,3.70
2022-08-07T02:32:10.750Z,4.30
2022-08-07T02:34:17.279Z,3.90
2022-08-07T02:36:30.865Z,4.20
2022-08-07T02:38:39.131Z,4.00
2022-08-07T02:40:55.598Z,3.60
2022-08-07T02:42:58.861Z,3.40
2022-08-07T02:45:15.986Z,3.50
2022-08-07T02:47:23.946Z,4.00
2022-08-07T02:49:57.964Z,4.20
2022-08-07T02:53:54.986Z,4.30
2022-08-07T02:56:03.568Z,3.80
2022-08-07T02:58:11.327Z,2.90
2022-08-07T03:00:20.187Z,4.10
2022-08-07T03:02:22.653Z,4.20
2022-08-07T03:04:24.458Z,4.30
2022-08-07T03:06:33.082Z,4.30
2022-08-07T03:08:36.437Z,4.10
2022-08-07T03:10:41.022Z,3.50
2022-08-07T03:12:48.798Z,3.70
2022-08-07T03:14:56.266Z,3.70
2022-08-07T03:16:58.249Z,4.30
2022-08-07T03:19:00.697Z,4.10
2022-08-07T03:21:08.230Z,4.00
2022-08-07T03:23:18.921Z,3.60
2022-08-07T03:25:23.775Z,3.00
2022-08-07T03:27:30.677Z,3.70
2022-08-07T03:29:37.350Z,3.80
2022-08-07T03:31:42.911Z,4.00
2022-08-07T03:33:51.804Z,4.10
2022-08-07T03:35:53.982Z,3.90
2022-08-07T03:38:01.832Z,3.80
2022-08-07T03:40:16.203Z,3.20
2022-08-07T03:42:19.998Z,3.80
2022-08-07T03:44:34.309Z,4.20
2022-08-07T03:46:37.619Z,3.70
2022-08-07T03:49:02.892Z,3.50
2022-08-07T03:51:05.973Z,4.10
2022-08-07T03:53:12.318Z,3.70
2022-08-07T03:55:14.734Z,3.10
2022-08-07T03:58:17.978Z,3.70
2022-08-07T03:59:46.618Z,3.50
2022-08-07T04:02:03.919Z,3.80
2022-08-07T04:04:07.794Z,3.50
2022-08-07T04:06:36.265Z,3.80
2022-08-07T04:08:41.541Z,3.20
2022-08-07T04:10:53.802Z,2.90
2022-08-07T04:12:58.166Z,3.40
2022-08-07T04:15:01.253Z,3.70
2022-08-07T04:17:05.230Z,3.40
2022-08-07T04:19:22.487Z,3.70
2022-08-07T04:21:58.801Z,3.80
2022-08-07T04:24:07.535Z,3.00
2022-08-07T04:26:09.748Z,2.50
2022-08-07T04:28:13.638Z,3.80
2022-08-07T04:30:21.290Z,3.20
2022-08-07T04:32:38.003Z,3.50
2022-08-07T04:36:42.929Z,4.00
2022-08-07T04:38:50.093Z,3.40
2022-08-07T04:40:56.528Z,3.30
2022-08-07T04:43:01.837Z,2.80
2022-08-07T04:45:08.212Z,3.50
2022-08-07T04:47:57.159Z,3.90
2022-08-07T04:49:41.975Z,3.40
2022-08-07T04:51:56.899Z,3.50
2022-08-07T04:54:22.567Z,3.40
2022-08-07T04:58:09.386Z,3.50
2022-08-07T05:01:30.214Z,3.20
2022-08-07T05:04:06.566Z,3.60
2022-08-07T05:06:19.363Z,3.40
2022-08-07T05:08:45.392Z,3.80
2022-08-07T05:11:02.342Z,3.80
2022-08-07T05:14:56.260Z,3.00
2022-08-07T05:15:40.677Z,2.70
2022-08-07T05:17:54.725Z,3.00
2022-08-07T05:19:57.727Z,3.10
2022-08-07T05:22:01.976Z,3.30
2022-08-07T05:24:13.813Z,3.40
2022-08-07T05:26:24.427Z,3.40
2022-08-07T05:28:27.616Z,3.40
2022-08-07T05:30:32.351Z,3.20
2022-08-07T05:32:35.386Z,2.80
2022-08-07T05:34:37.756Z,3.00
2022-08-07T05:42:08.895Z,3.30
2022-08-07T05:44:18.037Z,2.80
2022-08-07T05:46:31.567Z,2.50
2022-08-07T05:50:39.391Z,3.20
2022-08-07T05:52:44.789Z,3.60
2022-08-07T05:54:53.356Z,3.70
2022-08-07T05:56:58.860Z,3.80
2022-08-07T05:59:15.545Z,2.60
2022-08-07T06:01:18.111Z,2.60
2022-08-07T06:03:23.015Z,3.00
2022-08-07T06:05:29.058Z,3.40
2022-08-07T06:08:14.073Z,3.80
2022-08-07T06:10:05.316Z,3.40
2022-08-07T06:12:08.216Z,3.80
2022-08-07T06:16:23.401Z,2.80
2022-08-07T06:18:32.680Z,2.70
2022-08-07T06:20:50.941Z,3.30
2022-08-07T06:23:24.953Z,3.00
2022-08-07T06:25:22.244Z,3.10
2022-08-07T06:28:00.077Z,2.90
2022-08-07T06:29:47.310Z,2.80
2022-08-07T06:31:51.507Z,2.30
2022-08-07T06:33:53.494Z,2.40
2022-08-07T06:36:11.755Z,2.50
2022-08-07T06:38:20.261Z,2.50
2022-08-07T06:40:25.092Z,2.80
2022-08-07T06:42:37.580Z,2.60
2022-08-07T06:44:40.278Z,2.90
2022-08-07T06:46:42.263Z,2.30
2022-08-07T06:48:45.998Z,2.80
2022-08-07T06:50:48.404Z,2.50
2022-08-07T06:52:55.737Z,2.50
2022-08-07T06:55:33.101Z,2.60
2022-08-07T06:57:20.944Z,2.90
2022-08-07T07:00:11.759Z,2.70
2022-08-07T07:02:06.432Z,2.50
2022-08-07T07:04:27.998Z,2.80
2022-08-07T07:06:31.788Z,2.80
2022-08-07T07:08:39.636Z,3.40
2022-08-07T07:10:56.889Z,2.70
2022-08-07T07:13:07.101Z,3.10
2022-08-07T07:15:24.061Z,3.40
2022-08-07T07:17:38.818Z,2.70
2022-08-07T07:19:57.442Z,2.80
2022-08-07T07:22:05.430Z,2.90
2022-08-07T07:24:17.217Z,3.00
2022-08-07T07:26:31.331Z,3.10
2022-08-07T07:28:48.585Z,2.90
2022-08-07T07:31:30.285Z,3.30
2022-08-07T07:33:43.932Z,3.00
2022-08-07T07:39:52.098Z,3.10
2022-08-07T07:42:09.132Z,3.50
2022-08-07T07:44:25.814Z,2.70
2022-08-07T07:46:38.295Z,3.20
2022-08-07T07:48:59.888Z,3.20
2022-08-07T07:51:10.997Z,3.00
2022-08-07T07:53:23.307Z,3.30
2022-08-07T07:55:37.087Z,2.90
2022-08-07T07:57:52.459Z,2.80
2022-08-07T07:59:55.886Z,3.40
2022-08-07T08:02:10.266Z,3.20
2022-08-07T08:06:15.107Z,3.50
2022-08-07T08:08:32.402Z,3.10
2022-08-07T08:10:38.865Z,3.40
2022-08-07T08:12:58.894Z,3.10
2022-08-07T08:15:06.907Z,3.10
2022-08-07T08:17:55.362Z,3.00
2022-08-07T08:20:19.349Z,3.10
2022-08-07T08:22:21.138Z,2.90
2022-08-07T08:25:18.484Z,3.10
2022-08-07T08:27:22.926Z,3.00
2022-08-07T08:38:38.115Z,3.10
2022-08-07T08:40:48.069Z,3.00
2022-08-07T08:42:55.207Z,3.10
2022-08-07T08:45:13.404Z,3.20
2022-08-07T08:47:52.199Z,3.10
2022-08-07T08:50:34.910Z,2.90
2022-08-07T08:53:02.949Z,3.00
2022-08-07T08:55:54.831Z,3.20
2022-08-07T08:58:20.314Z,3.10
2022-08-07T09:00:30.598Z,3.10
2022-08-07T09:02:46.243Z,3.30
2022-08-07T09:05:08.217Z,2.90
2022-08-07T09:07:57.606Z,3.00
2022-08-07T09:10:23.338Z,3.20
2022-08-07T09:12:53.473Z,2.90
2022-08-07T09:16:25.159Z,3.40
2022-08-07T09:20:35.448Z,2.80
2022-08-07T09:24:28.933Z,2.80
2022-08-07T09:25:24.406Z,3.00
2022-08-07T09:28:00.644Z,2.80
2022-08-07T09:30:08.697Z,3.00
2022-08-07T09:32:42.486Z,2.90
2022-08-07T09:34:56.999Z,2.70
2022-08-07T09:37:11.892Z,2.90
2022-08-07T09:39:55.327Z,2.90
2022-08-07T09:42:02.956Z,2.60
2022-08-07T09:44:32.846Z,2.80
2022-08-07T09:47:49.712Z,2.50
2022-08-07T09:50:02.317Z,2.70
2022-08-07T09:52:35.669Z,2.40
2022-08-07T09:55:28.836Z,2.50
2022-08-07T09:57:53.624Z,2.20
2022-08-07T10:00:14.749Z,2.50
2022-08-07T10:02:24.252Z,2.40
2022-08-07T10:04:58.191Z,2.40
2022-08-07T10:07:24.249Z,2.30
2022-08-07T10:10:00.640Z,2.70
2022-08-07T10:12:30.565Z,2.50
2022-08-07T10:15:01.880Z,2.30
2022-08-07T10:17:23.546Z,2.50
2022-08-07T10:19:38.469Z,2.30
2022-08-07T10:22:14.942Z,2.00
2022-08-07T10:24:40.086Z,2.00
2022-08-07T10:27:00.169Z,2.00
2022-08-07T10:29:35.110Z,2.30
2022-08-07T10:31:52.289Z,2.10
2022-08-07T10:34:05.625Z,2.10
2022-08-07T10:36:29.647Z,2.30
2022-08-07T10:38:53.283Z,2.20
2022-08-07T10:41:46.267Z,2.30
2022-08-07T10:44:07.684Z,2.50
2022-08-07T10:46:15.970Z,2.30
2022-08-07T10:48:41.106Z,2.60
2022-08-07T10:50:53.413Z,2.50
2022-08-07T10:53:26.583Z,2.40
2022-08-07T10:55:37.631Z,2.40
2022-08-07T10:58:31.878Z,2.30
2022-08-07T11:01:11.624Z,2.40
2022-08-07T11:03:37.470Z,2.30
2022-08-07T11:06:22.128Z,2.10
2022-08-07T11:08:43.423Z,2.30
2022-08-07T11:11:00.084Z,2.20
2022-08-07T11:14:44.810Z,2.60
2022-08-07T11:15:54.313Z,2.40
2022-08-07T11:18:04.759Z,2.50
2022-08-07T11:20:12.084Z,2.30
2022-08-07T11:22:27.199Z,2.60
2022-08-07T11:25:06.849Z,2.20
2022-08-07T11:27:17.827Z,2.40
2022-08-07T11:29:53.848Z,2.40
2022-08-07T11:32:42.993Z,2.50
2022-08-07T11:34:49.998Z,2.40
2022-08-07T11:37:18.219Z,2.40
2022-08-07T11:39:39.635Z,2.30
2022-08-07T11:42:21.858Z,2.30
2022-08-07T11:44:57.726Z,2.40
2022-08-07T11:47:58.919Z,2.30
2022-08-07T11:53:01.527Z,2.50
2022-08-07T11:56:25.670Z,2.50
2022-08-07T11:58:24.970Z,2.50
2022-08-07T12:00:48.882Z,2.70
2022-08-07T12:03:44.893Z,2.60
2022-08-07T12:06:37.937Z,2.60
2022-08-07T12:08:37.198Z,2.50
2022-08-07T12:10:48.931Z,2.60
2022-08-07T12:13:18.901Z,2.80
2022-08-07T12:16:05.170Z,2.60
2022-08-07T12:18:29.643Z,2.80
2022-08-07T12:20:39.055Z,2.20
2022-08-07T12:22:58.345Z,2.50
2022-08-07T12:26:02.822Z,2.70
2022-08-07T12:28:08.578Z,3.30
2022-08-07T12:30:13.166Z,2.80
2022-08-07T12:32:24.406Z,2.90
2022-08-07T12:34:29.585Z,3.10
2022-08-07T12:36:35.123Z,2.80
2022-08-07T12:38:47.188Z,2.50
2022-08-07T12:40:50.486Z,2.60
2022-08-07T12:42:57.061Z,2.50
2022-08-07T12:45:04.475Z,2.50
2022-08-07T12:47:21.725Z,2.70
2022-08-07T12:49:51.160Z,2.60
2022-08-07T12:52:18.192Z,2.50
2022-08-07T12:54:38.345Z,2.40
2022-08-07T12:56:51.010Z,2.20
2022-08-07T12:58:59.644Z,2.50
2022-08-07T13:01:07.831Z,2.40
2022-08-07T13:03:53.625Z,2.30
2022-08-07T13:06:03.216Z,2.20
2022-08-07T13:08:21.933Z,2.60
2022-08-07T13:10:39.355Z,2.90
2022-08-07T13:13:02.481Z,2.50
2022-08-07T13:15:34.553Z,2.40
2022-08-07T13:17:51.265Z,2.10
2022-08-07T13:20:06.465Z,2.60
2022-08-07T13:22:27.764Z,2.50
2022-08-07T13:24:43.927Z,2.30
2022-08-07T13:27:10.581Z,2.50
2022-08-07T13:29:19.368Z,2.30
2022-08-07T13:31:32.029Z,2.50
2022-08-07T13:34:34.251Z,2.10
2022-08-07T13:36:19.820Z,2.30
2022-08-07T13:38:59.538Z,2.30
2022-08-07T13:41:30.234Z,2.40
2022-08-07T13:43:35.122Z,2.40
2022-08-07T13:46:11.893Z,2.30
2022-08-07T13:48:06.923Z,2.20
2022-08-07T13:50:33.239Z,2.50
2022-08-07T13:52:42.215Z,2.30
2022-08-07T13:54:49.269Z,2.20
2022-08-07T13:56:56.038Z,2.30
2022-08-07T13:59:01.500Z,2.40
2022-08-07T14:01:15.829Z,2.20
2022-08-07T14:03:29.929Z,2.50
2022-08-07T14:05:49.334Z,2.00
2022-08-07T14:10:02.166Z,2.30
2022-08-07T14:12:54.761Z,2.20
2022-08-07T14:15:08.877Z,2.20
2022-08-07T14:17:32.461Z,2.10
2022-08-07T14:22:11.567Z,2.10
2022-08-07T14:22:40.876Z,2.30
2022-08-07T14:24:29.360Z,2.20
2022-08-07T14:26:51.155Z,1.90
2022-08-07T14:29:08.497Z,1.80
2022-08-07T14:31:13.907Z,1.80
2022-08-07T14:33:22.549Z,2.30
2022-08-07T14:35:42.785Z,1.90
2022-08-07T14:38:03.053Z,2.10
2022-08-07T14:40:26.843Z,2.10
2022-08-07T14:42:32.212Z,2.00
2022-08-07T14:44:35.049Z,2.10
2022-08-07T14:46:38.297Z,1.80
2022-08-07T14:48:59.102Z,2.20
2022-08-07T14:51:21.988Z,2.00
2022-08-07T14:54:05.623Z,1.80
2022-08-07T14:55:55.771Z,1.90
2022-08-07T14:57:59.416Z,1.90
2022-08-07T15:00:06.099Z,2.00
2022-08-07T15:04:42.382Z,1.90
2022-08-07T15:06:55.481Z,1.70
2022-08-07T15:09:59.695Z,2.00
2022-08-07T15:11:53.250Z,1.70
2022-08-07T15:14:09.978Z,1.80
2022-08-07T15:16:14.650Z,1.90
2022-08-07T15:18:33.646Z,1.80
2022-08-07T15:20:55.545Z,1.70
2022-08-07T15:23:01.397Z,2.00
2022-08-07T15:25:26.228Z,2.00
2022-08-07T15:28:01.981Z,1.90
2022-08-07T15:30:16.238Z,1.90
2022-08-07T15:32:40.040Z,1.90
2022-08-07T15:34:58.984Z,1.80
2022-08-07T15:38:04.583Z,1.90
2022-08-07T15:42:44.050Z,1.80
2022-08-07T15:44:52.063Z,1.80
2022-08-07T15:46:58.589Z,2.00
2022-08-07T15:49:14.655Z,1.80
2022-08-07T15:51:17.792Z,1.90
2022-08-07T15:53:51.893Z,1.90
2022-08-07T15:56:02.861Z,1.70
2022-08-07T15:58:11.662Z,1.90
2022-08-07T16:00:40.061Z,2.00
2022-08-07T16:02:46.954Z,1.80
2022-08-07T16:04:56.420Z,1.90
2022-08-07T16:07:05.055Z,2.00
2022-08-07T16:09:41.058Z,2.10
2022-08-07T16:12:12.418Z,2.00
2022-08-07T16:14:20.674Z,1.90
2022-08-07T16:16:48.519Z,2.00
2022-08-07T16:19:12.980Z,2.20
2022-08-07T16:22:01.627Z,2.10
2022-08-07T16:24:34.939Z,1.80
2022-08-07T16:27:02.955Z,2.10
2022-08-07T16:30:09.137Z,2.20
2022-08-07T16:32:04.977Z,2.10
2022-08-07T16:34:23.696Z,2.10
2022-08-07T16:36:47.890Z,2.20
2022-08-07T16:39:33.725Z,2.10
2022-08-07T16:41:57.739Z,2.20
2022-08-07T16:44:47.483Z,2.40
2022-08-07T16:47:51.171Z,2.40
2022-08-07T16:50:41.867Z,2.30
2022-08-07T16:53:05.721Z,2.60
2022-08-07T16:55:47.184Z,2.50
2022-08-07T16:58:04.230Z,2.30
2022-08-07T17:00:15.139Z,2.50
2022-08-07T17:02:51.311Z,2.50
2022-08-07T17:06:01.472Z,2.40
2022-08-07T17:07:57.904Z,2.60
2022-08-07T17:10:32.860Z,2.50
2022-08-07T17:12:44.205Z,2.30
2022-08-07T17:14:52.922Z,2.40
2022-08-07T17:16:59.844Z,2.40
2022-08-07T17:19:04.817Z,2.50
2022-08-07T17:21:23.629Z,2.30
2022-08-07T17:24:16.266Z,2.30
2022-08-07T17:26:58.308Z,2.30
2022-08-07T17:29:04.547Z,2.70
2022-08-07T17:31:23.136Z,2.40
2022-08-07T17:34:09.640Z,2.50
2022-08-07T17:35:55.959Z,2.40
2022-08-07T17:38:23.638Z,2.30
2022-08-07T17:40:44.383Z,2.20
2022-08-07T17:43:02.801Z,2.40
2022-08-07T17:45:23.598Z,2.40
2022-08-07T17:47:41.844Z,2.10
2022-08-07T17:49:58.578Z,2.20
2022-08-07T17:52:12.721Z,2.10
2022-08-07T17:54:29.638Z,1.90
2022-08-07T17:56:58.187Z,2.00
2022-08-07T17:59:16.992Z,2.00
2022-08-07T18:01:36.818Z,1.90
2022-08-07T18:03:53.979Z,1.80
2022-08-07T18:06:16.482Z,1.70
2022-08-07T18:09:01.085Z,1.50
2022-08-07T18:14:06.720Z,1.30
2022-08-07T18:17:05.806Z,1.80
2022-08-07T18:21:07.461Z,1.40
2022-08-07T18:22:02.356Z,1.50
2022-08-07T18:24:42.788Z,1.40
2022-08-07T18:27:06.433Z,1.50
2022-08-07T18:30:07.390Z,1.50
2022-08-07T18:31:38.978Z,1.40
2022-08-07T18:34:28.605Z,1.60
2022-08-07T18:43:06.441Z,1.70
2022-08-07T18:45:39.779Z,1.70
2022-08-07T18:47:44.369Z,1.30
2022-08-07T18:50:38.084Z,1.40
2022-08-07T18:52:54.460Z,1.50
2022-08-07T18:55:40.524Z,1.50
2022-08-07T18:57:59.454Z,1.80
2022-08-07T19:00:34.580Z,1.90
2022-08-07T19:03:19.643Z,2.00
2022-08-07T19:06:03.844Z,1.70
2022-08-07T19:08:11.302Z,1.70
2022-08-07T19:10:21.258Z,2.00
2022-08-07T19:12:30.095Z,2.10
2022-08-07T19:16:02.909Z,2.00
2022-08-07T19:18:02.338Z,2.00
2022-08-07T19:20:29.078Z,2.00
2022-08-07T19:22:47.345Z,1.70
2022-08-07T19:24:50.353Z,1.80
2022-08-07T19:27:09.330Z,1.80
2022-08-07T19:30:57.841Z,1.80
2022-08-07T19:32:10.832Z,1.60
2022-08-07T19:34:13.591Z,1.50
2022-08-07T19:36:43.732Z,1.60
2022-08-07T19:38:55.945Z,1.80
2022-08-07T19:41:00.653Z,1.50
2022-08-07T19:43:21.573Z,1.50
2022-08-07T19:46:07.968Z,1.70
2022-08-07T19:48:02.742Z,1.80
2022-08-07T19:50:43.900Z,1.60
2022-08-07T19:52:58.457Z,1.70
2022-08-07T19:55:02.874Z,1.50
2022-08-07T19:58:01.762Z,1.60
2022-08-07T20:00:08.914Z,2.00
2022-08-07T20:02:52.171Z,1.40
2022-08-07T20:04:56.773Z,1.30
2022-08-07T20:06:58.692Z,1.40
2022-08-07T20:09:01.885Z,1.20
2022-08-07T20:14:53.530Z,2.10
2022-08-07T20:16:57.336Z,1.30
2022-08-07T20:19:00.002Z,1.40
2022-08-07T20:21:20.992Z,1.30
2022-08-07T20:23:42.026Z,1.50
2022-08-07T20:27:58.576Z,1.20
2022-08-07T20:30:11.019Z,1.50
2022-08-07T20:32:23.113Z,1.40
2022-08-07T20:34:49.558Z,1.60
2022-08-07T20:36:52.073Z,1.50
2022-08-07T20:39:00.241Z,1.50
2022-08-07T20:41:03.879Z,1.50
2022-08-07T20:43:14.560Z,1.60
2022-08-07T20:45:33.397Z,1.20
2022-08-07T20:47:56.853Z,1.30
2022-08-07T20:50:01.990Z,1.50
2022-08-07T20:52:13.856Z,1.50
2022-08-07T20:54:30.023Z,1.40
2022-08-07T20:56:46.227Z,1.60
2022-08-07T20:58:53.686Z,1.20
2022-08-07T21:01:21.415Z,1.30
2022-08-07T21:03:29.635Z,1.80
2022-08-07T21:05:50.781Z,1.50
2022-08-07T21:07:59.722Z,1.30
2022-08-07T21:10:05.677Z,1.40
2022-08-07T21:12:15.861Z,1.30
2022-08-07T21:14:39.473Z,1.50
2022-08-07T21:18:00.904Z,1.40
2022-08-07T21:19:32.138Z,1.60
2022-08-07T21:21:57.507Z,1.30
2022-08-07T21:23:59.339Z,1.30
2022-08-07T21:26:12.009Z,1.60
2022-08-07T21:28:47.718Z,1.50
2022-08-07T21:30:47.490Z,1.40
2022-08-07T21:33:17.713Z,1.10
2022-08-07T21:36:03.772Z,1.30
2022-08-07T21:38:02.245Z,1.10
2022-08-07T21:40:04.219Z,1.60
2022-08-07T21:42:41.906Z,2.00
2022-08-07T21:44:44.843Z,1.90
2022-08-07T21:47:07.457Z,1.70
2022-08-07T21:50:01.853Z,1.90
2022-08-07T21:52:33.166Z,1.80
2022-08-07T21:54:38.471Z,1.60
2022-08-07T21:57:30.838Z,1.70
2022-08-07T22:00:05.341Z,1.60
2022-08-07T22:02:13.393Z,1.30
2022-08-07T22:04:20.363Z,1.40
2022-08-07T22:06:30.195Z,1.40
2022-08-07T22:08:49.021Z,1.70
2022-08-07T22:10:58.349Z,1.50
2022-08-07T22:13:05.932Z,2.10
2022-08-07T22:16:43.304Z,1.60
2022-08-07T22:17:46.996Z,1.60
2022-08-07T22:20:22.914Z,1.80
2022-08-07T22:22:44.747Z,1.80
2022-08-07T22:24:46.536Z,1.50
2022-08-07T22:27:04.714Z,1.90
2022-08-07T22:29:13.764Z,1.50
2022-08-07T22:31:59.106Z,1.60
2022-08-07T22:34:18.210Z,1.50
2022-08-07T22:37:14.814Z,1.70
2022-08-07T22:39:53.003Z,1.60
2022-08-07T22:42:36.045Z,1.80
2022-08-07T22:44:57.904Z,1.60
2022-08-07T22:47:42.821Z,1.50
2022-08-07T22:50:01.086Z,1.80
2022-08-07T22:52:37.833Z,1.50
2022-08-07T22:54:49.906Z,1.70
2022-08-07T22:56:56.577Z,1.40
2022-08-07T22:59:36.070Z,2.00
2022-08-07T23:02:04.794Z,1.30
2022-08-07T23:04:56.734Z,1.70
2022-08-07T23:07:25.907Z,1.40
2022-08-07T23:13:49.009Z,1.80
2022-08-07T23:16:44.415Z,1.50
2022-08-07T23:19:48.188Z,1.50
2022-08-07T23:21:53.577Z,2.60
2022-08-07T23:24:17.278Z,1.80
2022-08-07T23:26:25.312Z,1.60
2022-08-07T23:34:21.804Z,1.40
2022-08-07T23:35:07.009Z,1.80
2022-08-07T23:37:19.877Z,1.50
2022-08-07T23:40:15.921Z,1.80
2022-08-07T23:42:53.439Z,1.90
2022-08-07T23:45:03.765Z,1.60
2022-08-07T23:47:05.422Z,1.60
2022-08-07T23:49:42.023Z,1.30
2022-08-07T23:53:00.607Z,1.60
2022-08-07T23:54:44.236Z,1.30
2022-08-07T23:57:12.927Z,1.60
